createdAt,value
2022-11-29T00:01:30.040Z,100730.89
2022-11-29T00:03:59.699Z,100727.86
2022-11-29T00:06:31.666Z,100729.45
2022-11-29T00:09:06.367Z,100731.23
2022-11-29T00:12:12.296Z,100726.01
2022-11-29T00:14:40.752Z,100725.48
2022-11-29T00:17:10.855Z,100725.92
2022-11-29T00:19:44.656Z,100726.89
2022-11-29T00:22:11.698Z,100730.99
2022-11-29T00:24:39.776Z,100726.46
2022-11-29T00:27:06.912Z,100724.82
2022-11-29T00:29:33.956Z,100722.89
2022-11-29T00:32:00.973Z,100728.14
2022-11-29T00:34:28.365Z,100722.66
2022-11-29T00:36:55.473Z,100727.20
2022-11-29T00:39:23.005Z,100726.17
2022-11-29T00:41:50.060Z,100730.71
2022-11-29T00:44:20.384Z,100729.01
2022-11-29T00:46:48.551Z,100724.95
2022-11-29T00:49:15.665Z,100719.48
2022-11-29T00:51:42.678Z,100719.70
2022-11-29T00:54:09.689Z,100721.89
2022-11-29T00:56:36.791Z,100719.17
2022-11-29T00:59:03.884Z,100715.64
2022-11-29T01:01:30.925Z,100715.27
2022-11-29T01:04:00.574Z,100718.51
2022-11-29T01:06:27.580Z,100715.55
2022-11-29T01:08:54.635Z,100718.67
2022-11-29T01:11:24.866Z,100717.57
2022-11-29T01:13:55.828Z,100720.05
2022-11-29T01:16:23.256Z,100722.55
2022-11-29T01:18:50.396Z,100722.27
2022-11-29T01:21:20.939Z,100725.57
2022-11-29T01:23:49.194Z,100723.46
2022-11-29T01:26:20.124Z,100723.55
2022-11-29T01:28:49.128Z,100721.08
2022-11-29T01:31:19.365Z,100717.76
2022-11-29T01:33:46.340Z,100715.35
2022-11-29T01:36:14.225Z,100716.44
2022-11-29T01:38:44.696Z,100714.64
2022-11-29T01:41:21.298Z,100714.92
2022-11-29T01:44:02.849Z,100719.55
2022-11-29T01:46:38.557Z,100719.56
2022-11-29T01:49:12.785Z,100716.14
2022-11-29T01:51:47.491Z,100715.30
2022-11-29T01:54:14.681Z,100717.60
2022-11-29T01:56:45.250Z,100717.81
2022-11-29T01:59:15.291Z,100715.07
2022-11-29T02:01:42.482Z,100715.88
2022-11-29T02:04:10.111Z,100715.88
2022-11-29T02:06:39.384Z,100713.50
2022-11-29T02:09:20.357Z,100715.42
2022-11-29T02:12:08.566Z,100714.34
2022-11-29T02:14:59.617Z,100708.67
2022-11-29T02:17:41.566Z,100714.30
2022-11-29T02:20:33.171Z,100710.53
2022-11-29T02:23:27.936Z,100715.35
2022-11-29T02:26:37.220Z,100715.87
2022-11-29T02:29:31.249Z,100720.27
2022-11-29T02:32:36.106Z,100718.95
2022-11-29T02:35:23.207Z,100722.34
2022-11-29T02:38:06.119Z,100720.70
2022-11-29T02:41:02.577Z,100727.05
2022-11-29T02:43:52.692Z,100725.70
2022-11-29T02:46:38.076Z,100730.77
2022-11-29T02:49:21.891Z,100730.55
2022-11-29T02:51:48.727Z,100727.97
2022-11-29T02:54:23.921Z,100730.36
2022-11-29T02:56:54.517Z,100730.73
2022-11-29T02:59:40.089Z,100732.86
2022-11-29T03:02:24.609Z,100727.67
2022-11-29T03:05:17.032Z,100734.22
2022-11-29T03:08:05.730Z,100733.73
2022-11-29T03:11:01.150Z,100731.30
2022-11-29T03:14:23.987Z,100730.54
2022-11-29T03:17:00.469Z,100732.52
2022-11-29T03:19:47.558Z,100731.79
2022-11-29T03:22:48.027Z,100734.30
2022-11-29T03:25:31.440Z,100730.98
2022-11-29T03:28:12.808Z,100736.02
2022-11-29T03:30:50.416Z,100736.98
2022-11-29T03:33:27.511Z,100737.01
2022-11-29T03:36:06.614Z,100739.70
2022-11-29T03:38:41.529Z,100739.23
2022-11-29T03:41:24.464Z,100736.73
2022-11-29T03:44:03.179Z,100739.08
2022-11-29T03:47:01.027Z,100740.95
2022-11-29T03:49:38.385Z,100744.20
2022-11-29T03:52:26.514Z,100748.55
2022-11-29T03:55:19.504Z,100749.50
2022-11-29T03:57:55.508Z,100748.02
2022-11-29T04:00:23.308Z,100748.42
2022-11-29T04:03:09.117Z,100749.42
2022-11-29T04:05:54.909Z,100745.99
2022-11-29T04:08:47.671Z,100749.20
2022-11-29T04:11:20.648Z,100753.78
2022-11-29T04:14:05.310Z,100756.98
2022-11-29T04:17:02.564Z,100755.69
2022-11-29T04:19:50.475Z,100756.45
2022-11-29T04:22:36.377Z,100757.19
2022-11-29T04:25:27.680Z,100759.11
2022-11-29T04:28:38.573Z,100760.02
2022-11-29T04:31:30.023Z,100763.19
2022-11-29T04:33:59.974Z,100765.28
2022-11-29T04:36:29.828Z,100763.33
2022-11-29T04:39:12.140Z,100764.48
2022-11-29T04:42:21.019Z,100775.05
2022-11-29T04:45:14.911Z,100773.73
2022-11-29T04:48:03.772Z,100776.00
2022-11-29T04:50:36.386Z,100778.69
2022-11-29T04:53:24.562Z,100780.79
2022-11-29T04:56:25.421Z,100781.67
2022-11-29T04:59:05.603Z,100784.44
2022-11-29T05:01:36.977Z,100779.39
2022-11-29T05:04:29.893Z,100784.87
2022-11-29T05:07:08.408Z,100789.92
2022-11-29T05:09:41.153Z,100785.56
2022-11-29T05:12:16.968Z,100790.98
2022-11-29T05:15:05.105Z,100795.69
2022-11-29T05:18:01.208Z,100792.59
2022-11-29T05:20:46.928Z,100797.27
2022-11-29T05:23:36.081Z,100798.71
2022-11-29T05:26:13.538Z,100805.83
2022-11-29T05:28:57.711Z,100801.86
2022-11-29T05:31:29.520Z,100805.36
2022-11-29T05:34:05.525Z,100803.15
2022-11-29T05:36:50.800Z,100804.89
2022-11-29T05:39:36.230Z,100812.64
2022-11-29T05:42:22.073Z,100807.66
2022-11-29T05:45:02.377Z,100808.08
2022-11-29T05:47:41.327Z,100808.55
2022-11-29T05:50:08.564Z,100811.23
2022-11-29T05:52:41.478Z,100809.86
2022-11-29T05:55:14.843Z,100807.67
2022-11-29T05:58:04.045Z,100813.59
2022-11-29T06:00:48.459Z,100816.34
2022-11-29T06:03:29.604Z,100822.45
2022-11-29T06:06:01.546Z,100817.63
2022-11-29T06:08:34.485Z,100821.71
2022-11-29T06:11:34.920Z,100824.00
2022-11-29T06:14:13.625Z,100830.56
2022-11-29T06:16:46.243Z,100830.17
2022-11-29T06:19:39.759Z,100833.98
2022-11-29T06:22:14.503Z,100833.71
2022-11-29T06:25:22.460Z,100837.55
2022-11-29T06:28:18.792Z,100845.33
2022-11-29T06:30:54.565Z,100839.41
2022-11-29T06:33:41.252Z,100846.66
2022-11-29T06:36:19.346Z,100843.61
2022-11-29T06:38:46.694Z,100848.10
2022-11-29T06:41:21.077Z,100850.77
2022-11-29T06:43:49.165Z,100853.45
2022-11-29T06:46:44.897Z,100858.29
2022-11-29T06:49:28.447Z,100859.88
2022-11-29T06:52:12.539Z,100863.38
2022-11-29T06:55:10.154Z,100862.05
2022-11-29T06:57:55.326Z,100863.73
2022-11-29T07:00:26.551Z,100863.30
2022-11-29T07:03:12.173Z,100867.89
2022-11-29T07:05:40.410Z,100869.98
2022-11-29T07:08:15.462Z,100869.34
2022-11-29T07:10:43.697Z,100871.64
2022-11-29T07:13:12.980Z,100875.57
2022-11-29T07:16:13.925Z,100881.19
2022-11-29T07:19:11.740Z,100881.35
2022-11-29T07:22:15.329Z,100880.16
2022-11-29T07:25:03.109Z,100883.59
2022-11-29T07:27:41.256Z,100883.78
2022-11-29T07:30:11.321Z,100881.98
2022-11-29T07:33:00.662Z,100884.34
2022-11-29T07:35:33.799Z,100890.92
2022-11-29T07:38:03.597Z,100887.38
2022-11-29T07:40:45.161Z,100896.95
2022-11-29T07:43:29.911Z,100898.78
2022-11-29T07:45:57.031Z,100904.78
2022-11-29T07:48:24.044Z,100902.05
2022-11-29T07:50:50.980Z,100907.91
2022-11-29T07:53:19.794Z,100909.27
2022-11-29T07:55:48.070Z,100911.90
2022-11-29T07:58:17.050Z,100908.83
2022-11-29T08:00:45.217Z,100908.18
2022-11-29T08:03:12.310Z,100910.40
2022-11-29T08:05:39.888Z,100914.47
2022-11-29T08:08:07.202Z,100913.52
2022-11-29T08:10:35.042Z,100917.73
2022-11-29T08:13:02.330Z,100919.98
2022-11-29T08:15:29.504Z,100911.98
2022-11-29T08:17:56.522Z,100912.60
2022-11-29T08:20:23.524Z,100912.88
2022-11-29T08:22:58.676Z,100912.62
2022-11-29T08:25:27.124Z,100915.53
2022-11-29T08:27:55.300Z,100916.50
2022-11-29T08:30:23.514Z,100914.98
2022-11-29T08:32:51.952Z,100912.20
2022-11-29T08:35:21.242Z,100912.44
2022-11-29T08:37:48.551Z,100909.98
2022-11-29T08:40:16.488Z,100906.35
2022-11-29T08:42:43.365Z,100913.25
2022-11-29T08:45:11.725Z,100915.42
2022-11-29T08:47:41.656Z,100920.33
2022-11-29T08:50:11.799Z,100918.88
2022-11-29T08:53:00.035Z,100920.05
2022-11-29T08:55:31.522Z,100924.85
2022-11-29T08:58:04.829Z,100922.77
2022-11-29T09:00:32.781Z,100927.48
2022-11-29T09:03:20.171Z,100925.44
2022-11-29T09:05:47.278Z,100927.42
2022-11-29T09:08:14.609Z,100928.39
2022-11-29T09:10:42.248Z,100930.18
2022-11-29T09:13:10.390Z,100927.70
2022-11-29T09:15:38.724Z,100930.92
2022-11-29T09:18:05.807Z,100929.25
2022-11-29T09:20:34.160Z,100930.11
2022-11-29T09:23:01.267Z,100931.17
2022-11-29T09:25:28.731Z,100933.79
2022-11-29T09:28:00.765Z,100933.05
2022-11-29T09:30:30.818Z,100940.59
2022-11-29T09:33:02.375Z,100937.06
2022-11-29T09:35:29.711Z,100939.05
2022-11-29T09:37:56.670Z,100945.45
2022-11-29T09:40:33.297Z,100941.50
2022-11-29T09:43:24.873Z,100940.64
2022-11-29T09:46:18.361Z,100945.29
2022-11-29T09:49:02.569Z,100947.15
2022-11-29T09:52:09.793Z,100946.19
2022-11-29T09:54:58.557Z,100944.65
2022-11-29T09:57:27.954Z,100945.55
2022-11-29T10:00:01.353Z,100945.73
2022-11-29T10:02:43.848Z,100947.13
2022-11-29T10:05:17.070Z,100944.14
2022-11-29T10:08:05.529Z,100944.16
2022-11-29T10:10:46.428Z,100943.42
2022-11-29T10:13:24.893Z,100946.78
2022-11-29T10:16:01.053Z,100942.98
2022-11-29T10:18:40.448Z,100948.95
2022-11-29T10:21:23.826Z,100943.15
2022-11-29T10:23:56.538Z,100948.33
2022-11-29T10:26:24.543Z,100947.19
2022-11-29T10:28:54.691Z,100948.79
2022-11-29T10:31:34.452Z,100949.03
2022-11-29T10:34:12.207Z,100947.98
2022-11-29T10:36:51.857Z,100948.70
2022-11-29T10:39:24.739Z,100953.63
2022-11-29T10:41:56.401Z,100950.52
2022-11-29T10:44:24.268Z,100946.13
2022-11-29T10:46:51.896Z,100951.11
2022-11-29T10:49:22.936Z,100950.81
2022-11-29T10:51:50.019Z,100957.61
2022-11-29T10:54:39.836Z,100952.91
2022-11-29T10:57:16.046Z,100952.17
2022-11-29T11:00:06.449Z,100948.98
2022-11-29T11:02:33.984Z,100947.48
2022-11-29T11:05:01.408Z,100946.70
2022-11-29T11:07:33.002Z,100947.84
2022-11-29T11:10:00.511Z,100951.75
2022-11-29T11:12:30.232Z,100949.88
2022-11-29T11:15:29.337Z,100951.30
2022-11-29T11:18:04.264Z,100951.58
2022-11-29T11:20:34.609Z,100951.73
2022-11-29T11:23:05.002Z,100951.88
2022-11-29T11:25:34.969Z,100953.36
2022-11-29T11:28:19.927Z,100953.88
2022-11-29T11:30:57.718Z,100954.14
2022-11-29T11:33:30.712Z,100953.37
2022-11-29T11:36:13.632Z,100954.20
2022-11-29T11:38:52.793Z,100955.11
2022-11-29T11:41:53.519Z,100954.83
2022-11-29T11:44:48.102Z,100954.16
2022-11-29T11:47:30.702Z,100961.52
2022-11-29T11:50:03.493Z,100965.57
2022-11-29T11:52:40.545Z,100966.08
2022-11-29T11:55:21.153Z,100968.22
2022-11-29T11:58:06.030Z,100967.95
2022-11-29T12:01:04.263Z,100969.44
2022-11-29T12:03:52.880Z,100971.36
2022-11-29T12:06:47.423Z,100970.84
2022-11-29T12:09:27.014Z,100972.33
2022-11-29T12:11:59.995Z,100975.84
2022-11-29T12:14:33.055Z,100974.23
2022-11-29T12:17:18.471Z,100974.96
2022-11-29T12:20:12.942Z,100976.43
2022-11-29T12:23:13.630Z,100974.94
2022-11-29T12:26:02.207Z,100974.24
2022-11-29T12:28:35.096Z,100975.31
2022-11-29T12:31:17.407Z,100977.73
2022-11-29T12:33:50.387Z,100978.92
2022-11-29T12:36:26.452Z,100978.42
2022-11-29T12:39:34.941Z,100981.18
2022-11-29T12:42:26.539Z,100980.11
2022-11-29T12:44:53.466Z,100982.52
2022-11-29T12:47:36.598Z,100984.14
2022-11-29T12:50:40.248Z,100987.12
2022-11-29T12:53:32.425Z,100987.77
2022-11-29T12:56:46.926Z,100986.30
2022-11-29T12:59:51.186Z,100984.97
2022-11-29T13:02:29.046Z,100991.77
2022-11-29T13:05:33.494Z,100992.94
2022-11-29T13:08:18.513Z,100990.69
2022-11-29T13:10:48.242Z,100990.61
2022-11-29T13:14:41.702Z,100991.75
2022-11-29T13:17:05.415Z,100988.39
2022-11-29T13:19:38.805Z,100990.75
2022-11-29T13:22:15.196Z,100987.45
2022-11-29T13:24:51.306Z,100994.98
2022-11-29T13:27:25.002Z,100993.27
2022-11-29T13:29:53.380Z,100991.60
2022-11-29T13:32:32.101Z,100993.13
2022-11-29T13:35:07.517Z,100996.20
2022-11-29T13:37:55.198Z,100998.13
2022-11-29T13:40:36.822Z,100994.72
2022-11-29T13:43:30.840Z,100997.58
2022-11-29T13:46:18.553Z,100998.80
2022-11-29T13:48:50.002Z,101002.70
2022-11-29T13:51:37.088Z,101003.65
2022-11-29T13:54:31.769Z,100998.81
2022-11-29T13:57:09.327Z,101002.07
2022-11-29T13:59:42.825Z,101004.13
2022-11-29T14:02:31.087Z,101007.60
2022-11-29T14:04:58.471Z,101008.43
2022-11-29T14:07:25.546Z,101011.62
2022-11-29T14:10:05.364Z,101012.05
2022-11-29T14:12:40.992Z,101010.28
2022-11-29T14:15:10.951Z,101010.52
2022-11-29T14:17:46.996Z,101011.83
2022-11-29T14:20:22.814Z,101009.83
2022-11-29T14:23:31.843Z,101012.41
2022-11-29T14:25:58.836Z,101014.97
2022-11-29T14:28:35.191Z,101019.25
2022-11-29T14:31:03.478Z,101019.04
2022-11-29T14:33:55.413Z,101020.36
2022-11-29T14:36:38.237Z,101017.94
2022-11-29T14:39:42.717Z,101026.58
2022-11-29T14:42:28.534Z,101029.39
2022-11-29T14:45:00.236Z,101030.35
2022-11-29T14:47:32.509Z,101033.92
2022-11-29T14:50:03.611Z,101032.19
2022-11-29T14:52:38.666Z,101035.48
2022-11-29T14:55:31.007Z,101034.26
2022-11-29T14:58:01.363Z,101039.48
2022-11-29T15:00:34.431Z,101043.13
2022-11-29T15:03:20.863Z,101040.80
2022-11-29T15:05:55.012Z,101041.27
2022-11-29T15:08:24.945Z,101042.87
2022-11-29T15:11:12.077Z,101045.77
2022-11-29T15:13:50.658Z,101049.81
2022-11-29T15:16:28.388Z,101053.64
2022-11-29T15:19:07.549Z,101052.70
2022-11-29T15:21:43.523Z,101056.52
2022-11-29T15:24:13.817Z,101054.27
2022-11-29T15:27:03.478Z,101057.50
2022-11-29T15:29:31.228Z,101056.73
2022-11-29T15:32:01.217Z,101054.14
2022-11-29T15:34:36.475Z,101057.99
2022-11-29T15:37:04.161Z,101059.38
2022-11-29T15:39:34.138Z,101060.77
2022-11-29T15:42:13.328Z,101062.06
2022-11-29T15:44:48.346Z,101063.20
2022-11-29T15:47:20.804Z,101062.05
2022-11-29T15:49:49.332Z,101066.27
2022-11-29T15:52:38.060Z,101071.14
2022-11-29T15:55:11.325Z,101070.88
2022-11-29T15:57:44.755Z,101070.66
2022-11-29T16:00:21.194Z,101072.19
2022-11-29T16:03:02.261Z,101070.93
2022-11-29T16:05:35.822Z,101071.86
2022-11-29T16:08:25.942Z,101068.73
2022-11-29T16:10:53.140Z,101071.96
2022-11-29T16:13:33.992Z,101081.19
2022-11-29T16:16:10.186Z,101080.11
2022-11-29T16:18:40.421Z,101077.16
2022-11-29T16:21:22.408Z,101079.65
2022-11-29T16:23:49.675Z,101079.76
2022-11-29T16:26:29.340Z,101081.67
2022-11-29T16:28:59.576Z,101082.19
2022-11-29T16:31:36.139Z,101088.60
2022-11-29T16:34:09.747Z,101091.31
2022-11-29T16:36:39.110Z,101090.88
2022-11-29T16:39:16.540Z,101094.02
2022-11-29T16:41:43.848Z,101101.56
2022-11-29T16:44:50.131Z,101098.92
2022-11-29T16:47:22.792Z,101099.39
2022-11-29T16:50:01.896Z,101101.17
2022-11-29T16:52:31.518Z,101100.24
2022-11-29T16:54:59.201Z,101102.73
2022-11-29T16:57:28.214Z,101105.09
2022-11-29T17:00:02.533Z,101104.90
2022-11-29T17:02:30.023Z,101109.34
2022-11-29T17:04:58.060Z,101109.06
2022-11-29T17:07:31.483Z,101109.60
2022-11-29T17:09:59.210Z,101109.34
2022-11-29T17:12:26.337Z,101111.95
2022-11-29T17:14:53.533Z,101113.20
2022-11-29T17:17:43.239Z,101114.12
2022-11-29T17:20:21.235Z,101103.61
2022-11-29T17:22:52.330Z,101118.64
2022-11-29T17:25:22.995Z,101120.84
2022-11-29T17:27:53.280Z,101122.95
2022-11-29T17:30:20.876Z,101121.31
2022-11-29T17:32:50.553Z,101124.35
2022-11-29T17:35:20.185Z,101126.45
2022-11-29T17:37:49.807Z,101132.66
2022-11-29T17:40:25.022Z,101129.55
2022-11-29T17:42:56.081Z,101134.43
2022-11-29T17:45:26.608Z,101133.82
2022-11-29T17:47:59.415Z,101135.99
2022-11-29T17:50:31.667Z,101137.80
2022-11-29T17:53:20.928Z,101143.02
2022-11-29T17:56:19.955Z,101136.45
2022-11-29T17:58:58.159Z,101137.75
2022-11-29T18:01:28.100Z,101142.23
2022-11-29T18:04:01.348Z,101139.49
2022-11-29T18:06:35.072Z,101145.29
2022-11-29T18:09:07.086Z,101145.86
2022-11-29T18:11:49.331Z,101144.52
2022-11-29T18:14:20.363Z,101142.36
2022-11-29T18:16:54.008Z,101144.84
2022-11-29T18:19:22.062Z,101144.38
2022-11-29T18:25:30.530Z,101152.75
2022-11-29T18:27:51.715Z,101150.49
2022-11-29T18:30:19.112Z,101153.54
2022-11-29T18:32:46.419Z,101153.60
2022-11-29T18:35:15.996Z,101156.13
2022-11-29T18:38:13.373Z,101159.40
2022-11-29T18:40:32.548Z,101157.19
2022-11-29T18:43:05.677Z,101159.61
2022-11-29T18:45:38.142Z,101157.52
2022-11-29T18:48:09.860Z,101151.95
2022-11-29T18:50:36.973Z,101150.77
2022-11-29T18:53:04.481Z,101157.09
2022-11-29T18:55:31.928Z,101158.48
2022-11-29T18:57:58.974Z,101158.33
2022-11-29T19:00:26.129Z,101159.48
2022-11-29T19:02:53.558Z,101164.66
2022-11-29T19:05:25.170Z,101166.96
2022-11-29T19:07:52.337Z,101165.52
2022-11-29T19:10:19.272Z,101165.55
2022-11-29T19:12:46.241Z,101165.30
2022-11-29T19:15:13.427Z,101164.96
2022-11-29T19:17:43.284Z,101166.51
2022-11-29T19:20:13.466Z,101171.39
2022-11-29T19:22:40.668Z,101172.17
2022-11-29T19:25:08.228Z,101170.92
2022-11-29T19:27:35.256Z,101174.21
2022-11-29T19:30:02.390Z,101167.87
2022-11-29T19:32:29.517Z,101175.87
2022-11-29T19:34:56.901Z,101177.86
2022-11-29T19:37:23.969Z,101176.23
2022-11-29T19:39:53.643Z,101179.85
2022-11-29T19:42:22.268Z,101177.84
2022-11-29T19:45:18.722Z,101179.30
2022-11-29T19:48:09.721Z,101179.38
2022-11-29T19:57:23.768Z,101178.72
2022-11-29T19:59:50.991Z,101187.12
2022-11-29T20:02:20.677Z,101185.67
2022-11-29T20:04:52.944Z,101191.02
2022-11-29T20:07:23.209Z,101186.98
2022-11-29T20:09:50.906Z,101189.20
2022-11-29T20:12:21.190Z,101193.33
2022-11-29T20:15:00.949Z,101191.13
2022-11-29T20:17:29.703Z,101189.52
2022-11-29T20:20:03.929Z,101189.70
2022-11-29T20:22:39.847Z,101191.46
2022-11-29T20:25:09.702Z,101191.32
2022-11-29T20:27:37.859Z,101190.99
2022-11-29T20:30:06.751Z,101194.78
2022-11-29T20:32:36.379Z,101198.67
2022-11-29T20:35:03.935Z,101197.31
2022-11-29T20:37:43.070Z,101196.08
2022-11-29T20:41:02.719Z,101195.63
2022-11-29T20:43:58.307Z,101197.23
2022-11-29T20:46:26.145Z,101199.19
2022-11-29T20:48:53.876Z,101198.77
2022-11-29T20:51:39.538Z,101199.46
2022-11-29T20:54:06.619Z,101200.16
2022-11-29T20:56:33.662Z,101202.98
2022-11-29T20:59:05.712Z,101192.65
2022-11-29T21:01:35.493Z,101196.17
2022-11-29T21:04:03.119Z,101200.86
2022-11-29T21:06:30.216Z,101199.90
2022-11-29T21:08:57.806Z,101197.86
2022-11-29T21:11:25.519Z,101194.64
2022-11-29T21:13:52.839Z,101197.16
2022-11-29T21:16:27.132Z,101198.08
2022-11-29T21:19:02.358Z,101197.19
2022-11-29T21:21:40.018Z,101199.71
2022-11-29T21:24:52.605Z,101201.02
2022-11-29T21:27:34.103Z,101202.54
2022-11-29T21:30:05.539Z,101200.48
2022-11-29T21:32:34.206Z,101205.27
2022-11-29T21:35:08.428Z,101203.25
2022-11-29T21:37:37.028Z,101208.47
2022-11-29T21:40:04.874Z,101210.29
2022-11-29T21:42:34.547Z,101213.56
2022-11-29T21:45:01.832Z,101212.67
2022-11-29T21:47:32.944Z,101217.23
2022-11-29T21:50:00.084Z,101220.02
2022-11-29T21:52:27.277Z,101217.16
2022-11-29T21:54:57.045Z,101218.02
2022-11-29T21:57:24.143Z,101217.94
2022-11-29T21:59:51.304Z,101226.02
2022-11-29T22:02:20.992Z,101227.58
2022-11-29T22:04:48.760Z,101231.01
2022-11-29T22:07:15.944Z,101231.89
2022-11-29T22:09:42.984Z,101229.14
2022-11-29T22:12:32.563Z,101233.34
2022-11-29T22:14:57.285Z,101235.27
2022-11-29T22:17:24.269Z,101232.00
2022-11-29T22:19:59.149Z,101233.34
2022-11-29T22:23:17.642Z,101234.21
2022-11-29T22:29:54.697Z,101230.13
2022-11-29T22:32:23.209Z,101237.95
2022-11-29T22:34:51.818Z,101236.90
2022-11-29T22:37:44.438Z,101235.30
2022-11-29T22:40:13.246Z,101233.67
2022-11-29T22:49:49.838Z,101237.70
2022-11-29T22:53:10.699Z,101236.84
2022-11-29T23:23:07.058Z,101242.70
2022-11-29T23:25:36.695Z,101242.27
2022-11-29T23:28:06.211Z,101241.73
2022-11-29T23:30:35.708Z,101244.00
2022-11-29T23:33:05.348Z,101240.95
2022-11-29T23:35:36.671Z,101243.59
2022-11-29T23:38:06.927Z,101243.34
2022-11-29T23:40:38.592Z,101239.73
2022-11-29T23:43:08.374Z,101240.63
2022-11-29T23:45:39.440Z,101234.64
2022-11-29T23:48:09.295Z,101234.21
2022-11-29T23:50:36.276Z,101232.83
2022-11-29T23:53:03.307Z,101233.29
2022-11-29T23:55:30.356Z,101237.02
2022-11-29T23:58:00.263Z,101241.38
